createdAt,value
2019-03-25T00:01:26.001Z,97570.95
2019-03-25T00:03:56.421Z,97569.49
2019-03-25T00:06:26.632Z,97570.09
2019-03-25T00:09:04.945Z,97565.61
2019-03-25T00:11:28.588Z,97566.73
2019-03-25T00:13:58.691Z,97566.08
2019-03-25T00:16:28.893Z,97567.28
2019-03-25T00:18:59.015Z,97564.78
2019-03-25T00:21:29.153Z,97558.91
2019-03-25T00:23:59.287Z,97558.56
2019-03-25T00:26:29.503Z,97559.28
2019-03-25T00:28:59.619Z,97556.19
2019-03-25T00:31:29.824Z,97551.41
2019-03-25T00:33:59.943Z,97534.13
2019-03-25T00:36:29.975Z,97541.36
2019-03-25T00:39:00.170Z,97538.77
2019-03-25T00:41:30.304Z,97544.15
2019-03-25T00:44:00.359Z,97547.28
2019-03-25T00:46:30.495Z,97535.52
2019-03-25T00:49:00.602Z,97536.42
2019-03-25T00:51:30.726Z,97536.33
2019-03-25T00:54:00.837Z,97530.63
2019-03-25T00:56:30.944Z,97538.56
2019-03-25T00:59:01.054Z,97535.87
2019-03-25T01:01:31.259Z,97537.24
2019-03-25T01:04:01.380Z,97535.45
2019-03-25T01:06:31.587Z,97529.92
2019-03-25T01:09:01.629Z,97519.92
2019-03-25T01:11:31.858Z,97513.52
2019-03-25T01:14:01.981Z,97514.16
2019-03-25T01:16:32.194Z,97511.09
2019-03-25T01:19:02.302Z,97501.70
2019-03-25T01:21:32.356Z,97501.39
2019-03-25T01:24:02.471Z,97492.42
2019-03-25T01:26:32.590Z,97488.42
2019-03-25T01:29:02.718Z,97492.70
2019-03-25T01:31:32.857Z,97494.63
2019-03-25T01:34:03.171Z,97488.84
2019-03-25T01:36:33.293Z,97488.44
2019-03-25T01:39:04.677Z,97484.74
2019-03-25T01:41:34.830Z,97483.55
2019-03-25T01:44:04.967Z,97483.52
2019-03-25T01:46:35.085Z,97473.11
2019-03-25T01:49:05.379Z,97478.60
2019-03-25T01:51:35.523Z,97476.89
2019-03-25T01:54:05.715Z,97472.42
2019-03-25T01:56:35.835Z,97472.67
2019-03-25T01:59:05.940Z,97473.30
2019-03-25T02:01:36.143Z,97475.80
2019-03-25T02:04:06.268Z,97473.24
2019-03-25T02:06:36.402Z,97469.33
2019-03-25T02:09:07.945Z,97473.13
2019-03-25T02:11:38.079Z,97464.81
2019-03-25T02:14:08.281Z,97462.77
2019-03-25T02:16:38.317Z,97457.98
2019-03-25T02:19:08.541Z,97460.19
2019-03-25T02:21:38.751Z,97449.34
2019-03-25T02:24:08.894Z,97449.10
2019-03-25T02:26:39.010Z,97454.61
2019-03-25T02:29:09.126Z,97449.79
2019-03-25T02:31:39.253Z,97440.10
2019-03-25T02:34:09.823Z,97440.49
2019-03-25T02:36:40.004Z,97446.56
2019-03-25T02:39:10.188Z,97444.99
2019-03-25T02:41:40.298Z,97443.17
2019-03-25T02:44:10.325Z,97442.11
2019-03-25T02:46:40.421Z,97443.53
2019-03-25T02:49:10.530Z,97439.06
2019-03-25T02:51:40.627Z,97431.25
2019-03-25T02:54:10.732Z,97435.09
2019-03-25T02:56:40.621Z,97429.34
2019-03-25T02:59:10.512Z,97424.68
2019-03-25T03:01:40.408Z,97423.39
2019-03-25T03:04:10.311Z,97426.75
2019-03-25T03:06:40.219Z,97425.66
2019-03-25T03:09:10.689Z,97420.52
2019-03-25T03:11:40.569Z,97422.82
2019-03-25T03:14:10.541Z,97421.83
2019-03-25T03:16:40.419Z,97427.08
2019-03-25T03:19:10.308Z,97428.36
2019-03-25T03:21:40.277Z,97434.11
2019-03-25T03:24:10.249Z,97419.06
2019-03-25T03:26:40.132Z,97416.95
2019-03-25T03:29:10.027Z,97420.88
2019-03-25T03:31:39.999Z,97415.88
2019-03-25T03:34:09.819Z,97407.00
2019-03-25T03:36:39.710Z,97412.69
2019-03-25T03:39:09.583Z,97413.05
2019-03-25T03:41:39.546Z,97409.63
2019-03-25T03:44:09.447Z,97420.46
2019-03-25T03:46:39.316Z,97411.15
2019-03-25T03:49:09.211Z,97408.08
2019-03-25T03:51:39.094Z,97408.42
2019-03-25T03:54:09.070Z,97411.29
2019-03-25T03:56:38.953Z,97405.94
2019-03-25T03:59:09.200Z,97399.64
2019-03-25T04:01:39.076Z,97406.41
2019-03-25T04:04:08.965Z,97404.73
2019-03-25T04:06:38.897Z,97406.52
2019-03-25T04:09:08.852Z,97404.78
2019-03-25T04:11:38.720Z,97398.00
2019-03-25T04:14:08.700Z,97397.75
2019-03-25T04:16:38.586Z,97405.14
2019-03-25T04:19:08.597Z,97405.52
2019-03-25T04:21:38.550Z,97404.11
2019-03-25T04:24:08.445Z,97409.63
2019-03-25T04:26:38.390Z,97409.52
2019-03-25T04:29:08.363Z,97403.80
2019-03-25T04:31:38.259Z,97414.52
2019-03-25T04:34:08.178Z,97418.70
2019-03-25T04:36:38.161Z,97423.21
2019-03-25T04:39:08.476Z,97425.25
2019-03-25T04:41:38.437Z,97417.09
2019-03-25T04:44:08.320Z,97421.76
2019-03-25T04:46:38.212Z,97416.92
2019-03-25T04:49:08.105Z,97419.06
2019-03-25T04:51:37.980Z,97428.28
2019-03-25T04:54:07.871Z,97430.31
2019-03-25T04:56:39.993Z,97436.19
2019-03-25T04:59:09.466Z,97442.05
2019-03-25T05:01:39.360Z,97442.56
2019-03-25T05:04:09.328Z,97444.11
2019-03-25T05:06:39.208Z,97452.05
2019-03-25T05:09:09.108Z,97441.84
2019-03-25T05:11:38.997Z,97439.03
2019-03-25T05:14:08.966Z,97441.25
2019-03-25T05:16:38.867Z,97438.11
2019-03-25T05:19:08.754Z,97433.86
2019-03-25T05:21:38.644Z,97447.57
2019-03-25T05:24:08.546Z,97439.04
2019-03-25T05:26:38.431Z,97446.39
2019-03-25T05:29:08.320Z,97441.22
2019-03-25T05:31:38.609Z,97435.76
2019-03-25T05:34:08.509Z,97439.66
2019-03-25T05:36:38.387Z,97435.09
2019-03-25T05:39:09.306Z,97439.13
2019-03-25T05:41:39.193Z,97435.14
2019-03-25T05:44:09.102Z,97439.03
2019-03-25T05:46:39.100Z,97432.11
2019-03-25T05:49:08.974Z,97442.36
2019-03-25T05:51:38.895Z,97444.28
2019-03-25T05:54:08.797Z,97441.33
2019-03-25T05:56:38.750Z,97453.22
2019-03-25T05:59:08.609Z,97457.26
2019-03-25T06:01:38.507Z,97465.17
2019-03-25T06:04:08.400Z,97458.01
2019-03-25T06:06:38.285Z,97451.00
2019-03-25T06:09:08.248Z,97454.20
2019-03-25T06:11:38.149Z,97453.04
2019-03-25T06:14:08.086Z,97455.41
2019-03-25T06:16:38.091Z,97457.95
2019-03-25T06:19:07.967Z,97452.59
2019-03-25T06:21:37.852Z,97459.44
2019-03-25T06:24:08.723Z,97459.31
2019-03-25T06:26:38.893Z,97459.19
2019-03-25T06:29:08.878Z,97456.16
2019-03-25T06:31:38.777Z,97462.77
2019-03-25T06:34:09.064Z,97465.03
2019-03-25T06:36:38.963Z,97463.16
2019-03-25T06:39:09.021Z,97474.36
2019-03-25T06:41:38.978Z,97469.48
2019-03-25T06:44:08.865Z,97467.68
2019-03-25T06:46:38.759Z,97465.98
2019-03-25T06:49:08.695Z,97473.34
2019-03-25T06:51:38.586Z,97471.47
2019-03-25T06:54:08.529Z,97465.14
2019-03-25T06:56:38.411Z,97464.06
2019-03-25T06:59:08.571Z,97452.79
2019-03-25T07:01:38.450Z,97468.84
2019-03-25T07:04:08.376Z,97468.86
2019-03-25T07:06:38.332Z,97465.63
2019-03-25T07:09:08.547Z,97479.92
2019-03-25T07:11:38.539Z,97476.63
2019-03-25T07:14:08.399Z,97472.64
2019-03-25T07:16:38.280Z,97477.77
2019-03-25T07:19:08.277Z,97478.63
2019-03-25T07:21:38.161Z,97479.27
2019-03-25T07:24:08.142Z,97483.09
2019-03-25T07:26:38.072Z,97480.25
2019-03-25T07:29:07.964Z,97481.66
2019-03-25T07:31:38.077Z,97473.28
2019-03-25T07:34:07.961Z,97471.62
2019-03-25T07:36:37.925Z,97478.86
2019-03-25T07:39:08.224Z,97479.75
2019-03-25T07:41:38.082Z,97480.77
2019-03-25T07:44:08.842Z,97483.11
2019-03-25T07:46:38.810Z,97491.34
2019-03-25T07:49:08.695Z,97492.85
2019-03-25T07:51:38.585Z,97504.87
2019-03-25T07:54:08.510Z,97498.92
2019-03-25T07:56:38.412Z,97494.06
2019-03-25T07:59:08.315Z,97477.95
2019-03-25T08:01:38.198Z,97483.00
2019-03-25T08:04:08.078Z,97491.50
2019-03-25T08:06:37.949Z,97480.13
2019-03-25T08:09:08.900Z,97483.75
2019-03-25T08:11:38.849Z,97478.67
2019-03-25T08:14:08.716Z,97483.39
2019-03-25T08:16:38.608Z,97474.14
2019-03-25T08:19:08.494Z,97475.61
2019-03-25T08:21:38.373Z,97478.03
2019-03-25T08:24:08.234Z,97477.11
2019-03-25T08:26:38.101Z,97466.70
2019-03-25T08:29:07.980Z,97467.64
2019-03-25T08:31:37.879Z,97465.00
2019-03-25T08:34:07.766Z,97463.45
2019-03-25T08:36:37.652Z,97461.46
2019-03-25T08:39:08.137Z,97454.38
2019-03-25T08:41:38.121Z,97451.86
2019-03-25T08:44:08.024Z,97448.52
2019-03-25T08:46:37.907Z,97458.18
2019-03-25T08:49:08.095Z,97455.43
2019-03-25T08:51:37.992Z,97451.59
2019-03-25T08:54:07.868Z,97441.33
2019-03-25T08:56:37.966Z,97456.89
2019-03-25T08:59:07.849Z,97434.31
2019-03-25T09:01:37.832Z,97430.00
2019-03-25T09:04:07.736Z,97431.84
2019-03-25T09:06:37.606Z,97434.00
2019-03-25T09:09:08.429Z,97432.19
2019-03-25T09:11:38.320Z,97439.52
2019-03-25T09:14:08.257Z,97426.66
2019-03-25T09:16:38.202Z,97409.42
2019-03-25T09:19:08.166Z,97407.72
2019-03-25T09:21:38.426Z,97402.61
2019-03-25T09:24:08.380Z,97402.37
2019-03-25T09:26:38.337Z,97409.98
2019-03-25T09:29:08.209Z,97420.16
2019-03-25T09:31:38.075Z,97408.59
2019-03-25T09:34:07.960Z,97409.51
2019-03-25T09:36:38.047Z,97414.49
2019-03-25T09:39:08.683Z,97428.56
2019-03-25T09:41:38.782Z,97430.00
2019-03-25T09:44:08.999Z,97430.75
2019-03-25T09:46:39.035Z,97427.03
2019-03-25T09:49:09.485Z,97413.17
2019-03-25T09:51:39.656Z,97430.80
2019-03-25T09:54:09.757Z,97422.44
2019-03-25T09:56:39.856Z,97425.30
2019-03-25T09:59:09.982Z,97420.13
2019-03-25T10:01:40.111Z,97426.00
2019-03-25T10:04:10.349Z,97422.36
2019-03-25T10:06:40.369Z,97426.69
2019-03-25T10:09:12.509Z,97420.02
2019-03-25T10:11:42.781Z,97429.08
2019-03-25T10:14:12.890Z,97430.78
2019-03-25T10:16:43.141Z,97435.83
2019-03-25T10:19:13.248Z,97426.48
2019-03-25T10:21:43.667Z,97418.25
2019-03-25T10:24:13.746Z,97415.61
2019-03-25T10:26:43.814Z,97428.94
2019-03-25T10:29:13.972Z,97417.13
2019-03-25T10:31:44.079Z,97411.98
2019-03-25T10:34:14.185Z,97417.05
2019-03-25T10:36:44.287Z,97409.42
2019-03-25T10:39:14.509Z,97414.28
2019-03-25T10:41:44.607Z,97412.30
2019-03-25T10:44:14.753Z,97418.47
2019-03-25T10:46:44.892Z,97404.70
2019-03-25T10:49:16.226Z,97412.69
2019-03-25T10:51:46.391Z,97404.08
2019-03-25T10:54:16.451Z,97407.54
2019-03-25T10:56:49.319Z,97411.88
2019-03-25T10:59:18.486Z,97412.03
2019-03-25T11:01:48.664Z,97409.95
2019-03-25T11:04:18.804Z,97403.56
2019-03-25T11:06:48.892Z,97399.69
2019-03-25T11:09:19.017Z,97396.23
2019-03-25T11:11:49.034Z,97390.55
2019-03-25T11:14:19.051Z,97382.50
2019-03-25T11:16:49.062Z,97386.98
2019-03-25T11:19:19.075Z,97375.24
2019-03-25T11:21:49.101Z,97374.47
2019-03-25T11:24:19.211Z,97378.41
2019-03-25T11:26:49.263Z,97377.11
2019-03-25T11:29:19.514Z,97365.44
2019-03-25T11:31:49.588Z,97368.52
2019-03-25T11:34:19.765Z,97370.63
2019-03-25T11:36:49.943Z,97368.40
2019-03-25T11:39:20.106Z,97371.19
2019-03-25T11:41:50.259Z,97371.36
2019-03-25T11:44:20.625Z,97377.23
2019-03-25T11:46:50.795Z,97396.66
2019-03-25T11:49:20.927Z,97424.66
2019-03-25T11:51:50.956Z,97397.95
2019-03-25T11:54:20.995Z,97382.47
2019-03-25T11:56:51.097Z,97383.76
2019-03-25T11:59:21.236Z,97381.83
2019-03-25T12:01:51.324Z,97388.05
2019-03-25T12:04:21.314Z,97384.45
2019-03-25T12:06:51.366Z,97388.52
2019-03-25T12:09:21.399Z,97388.30
2019-03-25T12:11:51.477Z,97395.83
2019-03-25T12:14:21.514Z,97405.41
2019-03-25T12:16:51.521Z,97407.83
2019-03-25T12:19:21.693Z,97439.27
2019-03-25T12:21:51.772Z,97434.06
2019-03-25T12:24:21.865Z,97434.06
2019-03-25T12:26:51.978Z,97424.48
2019-03-25T12:29:30.214Z,97420.08
2019-03-25T12:31:53.960Z,97407.25
2019-03-25T12:34:24.174Z,97408.21
2019-03-25T12:36:54.335Z,97413.61
2019-03-25T12:39:24.484Z,97412.77
2019-03-25T12:41:54.493Z,97412.90
2019-03-25T12:44:24.528Z,97406.89
2019-03-25T12:46:54.615Z,97397.55
2019-03-25T12:49:24.716Z,97416.73
2019-03-25T12:51:54.830Z,97395.28
2019-03-25T12:54:24.837Z,97402.11
2019-03-25T12:56:54.873Z,97391.20
2019-03-25T12:59:24.929Z,97389.53
2019-03-25T13:01:54.935Z,97397.19
2019-03-25T13:04:25.050Z,97389.99
2019-03-25T13:06:55.143Z,97394.66
2019-03-25T13:09:25.177Z,97391.44
2019-03-25T13:11:55.300Z,97393.06
2019-03-25T13:14:25.394Z,97391.82
2019-03-25T13:16:55.442Z,97388.57
2019-03-25T13:19:25.478Z,97375.10
2019-03-25T13:21:55.661Z,97358.79
2019-03-25T13:24:25.792Z,97360.21
2019-03-25T13:26:55.849Z,97347.00
2019-03-25T13:29:26.334Z,97358.00
2019-03-25T13:31:56.425Z,97356.72
2019-03-25T13:34:26.564Z,97347.55
2019-03-25T13:36:56.771Z,97354.54
2019-03-25T13:39:26.871Z,97346.33
2019-03-25T13:41:56.953Z,97336.81
2019-03-25T13:44:27.068Z,97346.05
2019-03-25T13:46:57.150Z,97345.80
2019-03-25T13:49:27.165Z,97345.50
2019-03-25T13:51:57.297Z,97359.70
2019-03-25T13:54:27.397Z,97358.41
2019-03-25T13:56:57.490Z,97377.42
2019-03-25T13:59:27.668Z,97375.23
2019-03-25T14:01:57.632Z,97376.87
2019-03-25T14:04:27.740Z,97372.25
2019-03-25T14:06:57.829Z,97365.43
2019-03-25T14:09:28.013Z,97355.63
2019-03-25T14:11:58.208Z,97342.16
2019-03-25T14:14:28.221Z,97342.60
2019-03-25T14:16:58.345Z,97340.18
2019-03-25T14:19:29.416Z,97344.62
2019-03-25T14:21:59.956Z,97350.55
2019-03-25T14:24:30.039Z,97354.12
2019-03-25T14:27:00.075Z,97349.19
2019-03-25T14:29:30.167Z,97354.37
2019-03-25T14:32:00.265Z,97353.70
2019-03-25T14:34:30.365Z,97357.84
2019-03-25T14:37:00.503Z,97391.81
2019-03-25T14:39:30.590Z,97433.97
2019-03-25T14:42:00.707Z,97460.19
2019-03-25T14:44:30.806Z,97464.23
2019-03-25T14:47:00.912Z,97485.02
2019-03-25T14:49:31.004Z,97482.80
2019-03-25T14:52:01.028Z,97496.02
2019-03-25T14:54:31.145Z,97495.27
2019-03-25T14:57:01.165Z,97496.97
2019-03-25T14:59:31.412Z,97487.84
2019-03-25T15:02:01.456Z,97480.23
2019-03-25T15:04:31.543Z,97469.28
2019-03-25T15:07:01.581Z,97467.53
2019-03-25T15:09:31.693Z,97473.12
2019-03-25T15:12:01.705Z,97458.84
2019-03-25T15:14:33.456Z,97451.87
2019-03-25T15:17:03.752Z,97447.77
2019-03-25T15:19:33.841Z,97444.94
2019-03-25T15:22:03.924Z,97456.09
2019-03-25T15:24:34.097Z,97457.59
2019-03-25T15:27:04.419Z,97446.14
2019-03-25T15:29:34.518Z,97455.67
2019-03-25T15:32:04.632Z,97454.48
2019-03-25T15:34:34.740Z,97450.22
2019-03-25T15:37:04.836Z,97452.47
2019-03-25T15:39:35.028Z,97466.00
2019-03-25T15:42:05.207Z,97457.63
2019-03-25T15:44:35.399Z,97464.06
2019-03-25T15:47:05.564Z,97469.95
2019-03-25T15:49:35.573Z,97462.55
2019-03-25T15:52:05.905Z,97475.81
2019-03-25T15:54:36.024Z,97465.89
2019-03-25T15:57:06.208Z,97465.27
2019-03-25T15:59:36.304Z,97465.63
2019-03-25T16:02:06.446Z,97470.27
2019-03-25T16:04:36.448Z,97457.92
2019-03-25T16:07:07.241Z,97467.97
2019-03-25T16:09:37.435Z,97456.83
2019-03-25T16:12:07.548Z,97452.51
2019-03-25T16:14:37.638Z,97448.44
2019-03-25T16:17:07.835Z,97448.54
2019-03-25T16:19:37.917Z,97450.52
2019-03-25T16:22:08.048Z,97456.03
2019-03-25T16:24:38.142Z,97459.48
2019-03-25T16:27:08.393Z,97453.20
2019-03-25T16:29:38.388Z,97451.30
2019-03-25T16:32:08.481Z,97448.63
2019-03-25T16:34:38.626Z,97451.27
2019-03-25T16:37:08.647Z,97450.99
2019-03-25T16:39:38.641Z,97439.25
2019-03-25T16:42:08.812Z,97449.98
2019-03-25T16:44:38.818Z,97458.72
2019-03-25T16:47:08.857Z,97459.19
2019-03-25T16:49:38.972Z,97468.98
2019-03-25T16:52:09.148Z,97470.24
2019-03-25T16:54:39.248Z,97477.17
2019-03-25T16:57:09.265Z,97492.63
2019-03-25T16:59:40.632Z,97499.97
2019-03-25T17:02:10.871Z,97535.16
2019-03-25T17:04:41.039Z,97540.18
2019-03-25T17:07:11.269Z,97541.25
2019-03-25T17:09:41.482Z,97553.31
2019-03-25T17:12:11.574Z,97555.86
2019-03-25T17:14:41.706Z,97566.77
2019-03-25T17:17:11.932Z,97571.67
2019-03-25T17:19:42.121Z,97588.20
2019-03-25T17:22:12.146Z,97576.34
2019-03-25T17:24:42.162Z,97587.72
2019-03-25T17:27:12.176Z,97585.09
2019-03-25T17:29:42.209Z,97585.69
2019-03-25T17:32:12.242Z,97580.66
2019-03-25T17:34:42.291Z,97575.15
2019-03-25T17:37:12.377Z,97586.77
2019-03-25T17:39:42.543Z,97584.84
2019-03-25T17:42:12.730Z,97583.41
2019-03-25T17:44:42.764Z,97588.91
2019-03-25T17:47:12.842Z,97584.61
2019-03-25T17:49:42.947Z,97584.97
2019-03-25T17:52:12.966Z,97590.33
2019-03-25T17:54:42.985Z,97589.50
2019-03-25T17:57:12.998Z,97600.52
2019-03-25T17:59:43.066Z,97598.48
2019-03-25T18:02:13.084Z,97606.73
2019-03-25T18:04:43.262Z,97607.55
2019-03-25T18:07:13.333Z,97623.82
2019-03-25T18:09:43.414Z,97623.08
2019-03-25T18:12:13.559Z,97624.86
2019-03-25T18:14:43.604Z,97623.26
2019-03-25T18:17:13.794Z,97639.44
2019-03-25T18:19:43.795Z,97636.27
2019-03-25T18:22:13.827Z,97637.03
2019-03-25T18:24:43.971Z,97649.47
2019-03-25T18:27:13.991Z,97649.42
2019-03-25T18:29:44.007Z,97654.41
2019-03-25T18:32:14.101Z,97659.66
2019-03-25T18:34:44.171Z,97661.73
2019-03-25T18:37:14.180Z,97658.48
2019-03-25T18:39:44.201Z,97667.22
2019-03-25T18:42:14.310Z,97673.17
2019-03-25T18:44:44.422Z,97677.90
2019-03-25T18:47:14.802Z,97672.06
2019-03-25T18:49:44.907Z,97679.69
2019-03-25T18:52:15.073Z,97680.50
2019-03-25T18:54:45.231Z,97682.80
2019-03-25T18:57:15.361Z,97691.53
2019-03-25T18:59:45.459Z,97698.66
2019-03-25T19:02:15.508Z,97703.38
2019-03-25T19:04:45.584Z,97701.14
2019-03-25T19:07:15.603Z,97698.77
2019-03-25T19:09:45.858Z,97710.14
2019-03-25T19:12:15.858Z,97720.15
2019-03-25T19:14:45.960Z,97725.95
2019-03-25T19:17:16.036Z,97724.98
2019-03-25T19:19:46.255Z,97721.27
2019-03-25T19:22:16.332Z,97723.80
2019-03-25T19:24:46.502Z,97730.94
2019-03-25T19:27:17.631Z,97725.00
2019-03-25T19:29:47.937Z,97722.78
2019-03-25T19:32:18.048Z,97727.73
2019-03-25T19:34:49.969Z,97733.49
2019-03-25T19:37:20.021Z,97742.86
2019-03-25T19:39:50.541Z,97741.82
2019-03-25T19:42:20.648Z,97748.37
2019-03-25T19:44:50.747Z,97756.37
2019-03-25T19:47:22.724Z,97753.61
2019-03-25T19:49:52.921Z,97763.73
2019-03-25T19:52:24.059Z,97762.75
2019-03-25T19:54:54.125Z,97776.84
2019-03-25T19:57:24.197Z,97771.94
2019-03-25T19:59:54.163Z,97778.23
2019-03-25T20:02:24.325Z,97780.47
2019-03-25T20:04:54.293Z,97785.53
2019-03-25T20:07:24.330Z,97784.69
2019-03-25T20:09:54.427Z,97788.61
2019-03-25T20:12:24.513Z,97792.37
2019-03-25T20:14:54.675Z,97792.44
2019-03-25T20:17:24.755Z,97791.70
2019-03-25T20:19:54.858Z,97797.85
2019-03-25T20:22:24.976Z,97796.62
2019-03-25T20:24:54.974Z,97801.38
2019-03-25T20:27:25.130Z,97805.80
2019-03-25T20:29:55.365Z,97808.83
2019-03-25T20:32:31.723Z,97808.39
2019-03-25T20:34:57.225Z,97817.23
2019-03-25T20:37:27.205Z,97824.20
2019-03-25T20:39:57.201Z,97824.02
2019-03-25T20:42:27.307Z,97832.60
2019-03-25T20:44:57.344Z,97837.03
2019-03-25T20:47:27.356Z,97839.05
2019-03-25T20:49:57.484Z,97841.45
2019-03-25T20:52:27.490Z,97844.47
2019-03-25T20:54:57.545Z,97843.33
2019-03-25T20:57:27.591Z,97841.64
2019-03-25T20:59:57.636Z,97840.14
2019-03-25T21:02:27.693Z,97842.32
2019-03-25T21:04:57.844Z,97839.41
2019-03-25T21:07:27.934Z,97844.75
2019-03-25T21:09:57.937Z,97838.95
2019-03-25T21:12:27.932Z,97851.95
2019-03-25T21:14:58.036Z,97855.96
2019-03-25T21:17:28.213Z,97857.56
2019-03-25T21:19:58.291Z,97868.30
2019-03-25T21:22:28.365Z,97869.56
2019-03-25T21:24:58.376Z,97866.55
2019-03-25T21:27:28.371Z,97858.36
2019-03-25T21:29:58.333Z,97869.80
2019-03-25T21:32:28.414Z,97870.91
2019-03-25T21:34:58.553Z,97864.39
2019-03-25T21:37:28.709Z,97871.28
2019-03-25T21:39:58.715Z,97880.02
2019-03-25T21:42:29.270Z,97872.83
2019-03-25T21:44:59.432Z,97881.05
2019-03-25T21:47:29.582Z,97881.81
2019-03-25T21:49:59.574Z,97877.38
2019-03-25T21:52:29.617Z,97880.08
2019-03-25T21:54:59.658Z,97876.98
2019-03-25T21:57:29.890Z,97882.77
2019-03-25T21:59:59.863Z,97882.28
2019-03-25T22:02:29.942Z,97895.45
2019-03-25T22:05:00.295Z,97889.84
2019-03-25T22:07:30.503Z,97887.75
2019-03-25T22:10:00.512Z,97892.80
2019-03-25T22:12:30.595Z,97883.77
2019-03-25T22:15:00.680Z,97889.91
2019-03-25T22:17:30.704Z,97883.77
2019-03-25T22:20:00.736Z,97890.30
2019-03-25T22:22:30.840Z,97895.17
2019-03-25T22:25:00.965Z,97896.16
2019-03-25T22:27:31.012Z,97896.98
2019-03-25T22:30:01.085Z,97898.21
2019-03-25T22:32:31.073Z,97907.73
2019-03-25T22:35:01.119Z,97903.11
2019-03-25T22:37:31.209Z,97906.26
2019-03-25T22:40:01.215Z,97901.77
2019-03-25T22:42:50.033Z,97906.30
2019-03-25T22:45:29.194Z,97918.28
2019-03-25T22:47:59.060Z,97924.73
2019-03-25T22:50:30.374Z,97928.59
2019-03-25T22:53:00.312Z,97928.97
2019-03-25T22:55:30.398Z,97928.08
2019-03-25T22:58:00.273Z,97939.83
2019-03-25T23:00:44.794Z,97939.77
2019-03-25T23:03:15.462Z,97942.92
2019-03-25T23:05:45.532Z,97952.34
2019-03-25T23:08:15.480Z,97952.19
2019-03-25T23:10:45.459Z,97954.03
2019-03-25T23:13:15.325Z,97955.59
2019-03-25T23:15:45.209Z,97964.12
2019-03-25T23:18:15.165Z,97962.95
2019-03-25T23:20:45.045Z,97973.89
2019-03-25T23:23:14.899Z,97982.53
2019-03-25T23:25:44.778Z,97980.89
2019-03-25T23:28:14.647Z,97984.56
2019-03-25T23:30:44.542Z,97980.13
2019-03-25T23:33:14.417Z,97967.95
2019-03-25T23:35:44.376Z,97975.30
2019-03-25T23:38:14.425Z,97972.80
2019-03-25T23:40:44.305Z,97970.73
2019-03-25T23:43:14.180Z,97973.05
2019-03-25T23:45:44.067Z,97980.69
2019-03-25T23:48:13.964Z,97975.38
2019-03-25T23:50:43.842Z,97971.11
2019-03-25T23:53:13.708Z,97966.52
2019-03-25T23:55:43.624Z,97982.01
2019-03-25T23:58:13.521Z,97981.02
